Time;durP1;ratioP1;P1;durP2;ratioP2;P2;SDS_P1;SDS_P2;PMS_P1;PMS_P2;Temp;Humidity;BMP_temperature;BMP_pressure;BME280_temperature;BME280_humidity;BME280_pressure;Samples;Min_cycle;Max_cycle;Signal;HPM_P1;HPM_P2
2023/05/24 00:00:03;;;;;;;10.57;3.78;;;;;;;;;;6250469;28;20045;-78
2023/05/24 00:03:05;;;;;;;9.80;3.75;;;;;;;;;;6250283;28;20049;-79
2023/05/24 00:06:07;;;;;;;10.75;3.50;;;;;;;;;;6252403;28;20037;-80
2023/05/24 00:09:11;;;;;;;8.00;3.63;;;;;;;;;;6245469;28;20041;-79
2023/05/24 00:12:12;;;;;;;9.15;3.70;;;;;;;;;;6253987;28;20468;-80
2023/05/24 00:15:14;;;;;;;13.05;3.83;;;;;;;;;;6248907;28;20106;-79
2023/05/24 00:18:16;;;;;;;8.07;3.75;;;;;;;;;;6266883;28;20081;-78
2023/05/24 00:21:18;;;;;;;7.72;3.58;;;;;;;;;;6238345;28;20449;-80
2023/05/24 00:24:20;;;;;;;8.40;3.78;;;;;;;;;;6265223;28;20041;-79
2023/05/24 00:27:22;;;;;;;7.53;3.17;;;;;;;;;;6257532;28;20175;-79
2023/05/24 00:30:23;;;;;;;4.88;3.25;;;;;;;;;;6251962;28;20044;-79
2023/05/24 00:33:26;;;;;;;6.88;3.83;;;;;;;;;;6252294;28;20049;-79
2023/05/24 00:36:28;;;;;;;8.63;3.53;;;;;;;;;;6247996;28;20045;-79
2023/05/24 00:39:30;;;;;;;10.93;3.60;;;;;;;;;;6248122;28;20048;-79
2023/05/24 00:42:31;;;;;;;9.30;3.67;;;;;;;;;;6239286;28;20092;-78
2023/05/24 00:45:33;;;;;;;5.68;3.10;;;;;;;;;;6248450;28;20040;-79
2023/05/24 00:48:34;;;;;;;6.78;3.05;;;;;;;;;;6272373;28;20061;-81
2023/05/24 00:51:37;;;;;;;6.63;3.35;;;;;;;;;;6254941;28;20069;-79
2023/05/24 00:54:39;;;;;;;6.63;3.35;;;;;;;;;;6244382;28;20037;-81
2023/05/24 00:57:41;;;;;;;6.82;3.00;;;;;;;;;;6260360;28;20037;-80
2023/05/24 01:00:48;;;;;;;9.40;3.53;;;;;;;;;;6258211;28;20130;-79
2023/05/24 01:03:53;;;;;;;9.63;3.95;;;;;;;;;;6270524;28;20047;-77
2023/05/24 01:07:19;;;;;;;8.13;3.33;;;;;;;;;;6260065;28;20049;-82
2023/05/24 01:10:39;;;;;;;7.53;2.95;;;;;;;;;;6273189;28;20075;-79
2023/05/24 01:14:06;;;;;;;6.90;3.22;;;;;;;;;;6256976;28;20120;-79
2023/05/24 01:17:19;;;;;;;7.57;2.97;;;;;;;;;;6251346;28;20134;-79
2023/05/24 01:20:22;;;;;;;7.28;3.50;;;;;;;;;;6237498;28;20048;-80
2023/05/24 01:23:43;;;;;;;12.93;4.13;;;;;;;;;;6240788;28;20180;-79
2023/05/24 01:27:06;;;;;;;10.30;3.05;;;;;;;;;;6259217;28;20102;-77
2023/05/24 01:30:09;;;;;;;8.00;3.47;;;;;;;;;;6238217;28;20064;-80
2023/05/24 01:33:10;;;;;;;11.02;3.38;;;;;;;;;;6249659;28;20048;-79
2023/05/24 01:36:13;;;;;;;10.40;3.63;;;;;;;;;;6238553;28;20061;-78
2023/05/24 01:39:15;;;;;;;10.40;3.60;;;;;;;;;;6254212;28;20510;-80
2023/05/24 01:42:26;;;;;;;10.85;3.80;;;;;;;;;;6254384;28;20423;-79
2023/05/24 01:45:47;;;;;;;7.70;3.53;;;;;;;;;;6253995;28;20056;-78
2023/05/24 01:49:19;;;;;;;7.72;3.20;;;;;;;;;;6257595;28;20037;-79
2023/05/24 01:52:24;;;;;;;10.27;4.30;;;;;;;;;;6241262;28;20120;-80
2023/05/24 01:55:26;;;;;;;8.18;3.55;;;;;;;;;;6259208;28;20041;-79
2023/05/24 01:58:30;;;;;;;7.83;3.37;;;;;;;;;;6245661;28;20126;-80
2023/05/24 02:01:33;;;;;;;7.97;3.40;;;;;;;;;;6245860;28;20060;-78
2023/05/24 02:04:35;;;;;;;;;;;;;;;;;;6259554;28;20055;-79
2023/05/24 02:07:37;;;;;;;9.05;3.20;;;;;;;;;;6234511;28;19925;-80
2023/05/24 02:10:39;;;;;;;6.72;2.88;;;;;;;;;;6237821;28;20065;-79
2023/05/24 02:13:41;;;;;;;6.32;3.53;;;;;;;;;;6254357;28;20041;-80
2023/05/24 02:16:45;;;;;;;6.22;2.80;;;;;;;;;;6258853;28;20151;-80
2023/05/24 02:19:47;;;;;;;7.72;2.95;;;;;;;;;;6255253;28;20052;-80
2023/05/24 02:22:49;;;;;;;4.88;2.85;;;;;;;;;;6258755;28;20051;-77
2023/05/24 02:25:51;;;;;;;6.57;3.07;;;;;;;;;;6254040;28;20045;-79
2023/05/24 02:28:52;;;;;;;5.78;3.15;;;;;;;;;;6254701;28;20051;-78
2023/05/24 02:31:55;;;;;;;9.25;3.58;;;;;;;;;;6249146;28;20135;-78
2023/05/24 02:35:00;;;;;;;5.68;3.03;;;;;;;;;;6238566;28;20049;-80
2023/05/24 02:38:05;;;;;;;8.20;3.35;;;;;;;;;;6232846;28;20053;-78
2023/05/24 02:41:08;;;;;;;8.18;3.30;;;;;;;;;;6252515;28;20487;-79
2023/05/24 02:44:10;;;;;;;5.67;3.17;;;;;;;;;;6257736;28;20041;-79
2023/05/24 02:47:12;;;;;;;7.43;3.33;;;;;;;;;;6251913;28;20110;-79
2023/05/24 02:50:13;;;;;;;7.93;3.20;;;;;;;;;;6252808;28;20052;-80
2023/05/24 02:53:15;;;;;;;6.63;2.80;;;;;;;;;;6247843;28;20041;-79
2023/05/24 02:56:18;;;;;;;5.63;2.85;;;;;;;;;;6258793;28;20045;-80
2023/05/24 02:59:19;;;;;;;6.13;2.75;;;;;;;;;;6257543;28;20051;-78
2023/05/24 03:02:22;;;;;;;10.37;3.30;;;;;;;;;;6240189;28;20041;-78
2023/05/24 03:05:23;;;;;;;7.30;3.22;;;;;;;;;;6239468;28;20044;-79
2023/05/24 03:08:26;;;;;;;11.00;3.38;;;;;;;;;;6234071;28;20179;-80
2023/05/24 03:11:27;;;;;;;9.35;3.70;;;;;;;;;;6250142;28;20060;-79
2023/05/24 03:14:31;;;;;;;14.35;6.68;;;;;;;;;;6248213;28;20422;-80
2023/05/24 03:17:32;;;;;;;19.75;8.82;;;;;;;;;;6253025;28;20128;-79
2023/05/24 03:20:34;;;;;;;13.13;6.63;;;;;;;;;;6253367;28;20048;-80
2023/05/24 03:23:36;;;;;;;9.40;4.82;;;;;;;;;;6241127;28;20084;-81
2023/05/24 03:26:39;;;;;;;9.75;3.78;;;;;;;;;;6247189;28;20033;-80
2023/05/24 03:29:42;;;;;;;9.25;3.78;;;;;;;;;;6228130;28;20045;-80
2023/05/24 03:32:45;;;;;;;6.60;3.22;;;;;;;;;;6238113;28;20072;-80
2023/05/24 03:35:46;;;;;;;5.78;3.22;;;;;;;;;;6249132;28;20049;-80
2023/05/24 03:38:48;;;;;;;10.93;3.85;;;;;;;;;;6226933;28;20041;-81
2023/05/24 03:41:51;;;;;;;7.30;3.67;;;;;;;;;;6247932;28;20065;-81
2023/05/24 03:44:54;;;;;;;11.88;3.67;;;;;;;;;;6225708;28;20129;-81
2023/05/24 03:47:55;;;;;;;6.25;2.95;;;;;;;;;;6248411;28;20045;-79
2023/05/24 03:50:57;;;;;;;10.80;3.50;;;;;;;;;;6248817;28;20049;-80
2023/05/24 03:53:59;;;;;;;8.48;3.33;;;;;;;;;;6267210;28;20111;-80
2023/05/24 03:57:01;;;;;;;9.90;3.72;;;;;;;;;;6269229;28;20491;-79
2023/05/24 04:00:06;;;;;;;6.32;3.70;;;;;;;;;;6233382;28;20396;-79
2023/05/24 04:03:14;;;;;;;7.30;3.40;;;;;;;;;;6248785;28;20128;-80
2023/05/24 04:06:16;;;;;;;6.20;2.92;;;;;;;;;;6252084;28;20048;-81
2023/05/24 04:09:18;;;;;;;4.85;3.28;;;;;;;;;;6240757;28;20041;-78
2023/05/24 04:12:20;;;;;;;6.38;3.00;;;;;;;;;;6264669;28;20052;-80
2023/05/24 04:15:22;;;;;;;7.68;3.33;;;;;;;;;;6252501;28;20497;-78
2023/05/24 04:18:24;;;;;;;7.90;3.40;;;;;;;;;;6250382;28;20138;-79
2023/05/24 04:21:29;;;;;;;6.20;3.47;;;;;;;;;;6248991;28;20566;-79
2023/05/24 04:24:30;;;;;;;6.95;3.42;;;;;;;;;;6254094;28;20042;-79
2023/05/24 04:27:32;;;;;;;9.05;3.42;;;;;;;;;;6252299;28;20059;-82
2023/05/24 04:30:35;;;;;;;9.48;3.75;;;;;;;;;;6234936;28;20630;-82
2023/05/24 04:33:38;;;;;;;7.72;3.92;;;;;;;;;;6250604;28;20037;-79
2023/05/24 04:36:40;;;;;;;8.00;3.75;;;;;;;;;;6244708;28;20041;-80
2023/05/24 04:39:44;;;;;;;;;;;;;;;;;;6269520;28;20068;-80
2023/05/24 04:42:45;;;;;;;6.88;2.67;;;;;;;;;;6239850;28;19925;-81
2023/05/24 04:45:47;;;;;;;4.80;2.75;;;;;;;;;;6252688;28;20041;-81
2023/05/24 04:48:49;;;;;;;6.30;3.05;;;;;;;;;;6248717;28;20056;-81
2023/05/24 04:51:50;;;;;;;7.03;2.90;;;;;;;;;;6246371;28;20060;-81
2023/05/24 04:54:56;;;;;;;7.00;3.13;;;;;;;;;;6254812;28;20095;-81
2023/05/24 04:57:58;;;;;;;10.52;3.92;;;;;;;;;;6249469;28;20057;-81
2023/05/24 05:01:01;;;;;;;8.60;3.53;;;;;;;;;;6245502;28;20052;-81
2023/05/24 05:04:06;;;;;;;8.00;3.43;;;;;;;;;;6251948;28;20080;-81
2023/05/24 05:07:08;;;;;;;6.75;3.30;;;;;;;;;;6255607;28;20520;-82
2023/05/24 05:10:10;;;;;;;8.77;3.63;;;;;;;;;;6258247;28;20055;-80
2023/05/24 05:13:12;;;;;;;8.65;3.42;;;;;;;;;;6254809;28;20045;-79
2023/05/24 05:16:14;;;;;;;4.93;3.33;;;;;;;;;;6252796;28;20044;-81
2023/05/24 05:19:15;;;;;;;9.68;3.58;;;;;;;;;;6262624;28;20037;-80
2023/05/24 05:22:17;;;;;;;6.15;3.33;;;;;;;;;;6258419;28;20049;-80
2023/05/24 05:25:19;;;;;;;6.85;3.40;;;;;;;;;;6268190;28;20499;-79
2023/05/24 05:28:20;;;;;;;11.48;3.53;;;;;;;;;;6248448;28;20099;-79
2023/05/24 05:31:22;;;;;;;7.38;3.35;;;;;;;;;;6259637;28;20102;-78
2023/05/24 05:34:24;;;;;;;8.85;3.58;;;;;;;;;;6244788;28;20508;-78
2023/05/24 05:37:26;;;;;;;7.28;3.65;;;;;;;;;;6251676;28;20041;-80
2023/05/24 05:40:27;;;;;;;8.68;2.97;;;;;;;;;;6240397;28;20057;-79
2023/05/24 05:43:30;;;;;;;8.30;3.58;;;;;;;;;;6255277;28;20110;-79
2023/05/24 05:46:32;;;;;;;12.63;3.80;;;;;;;;;;6254635;28;20059;-78
2023/05/24 05:49:36;;;;;;;9.82;3.20;;;;;;;;;;6237317;28;20045;-80
2023/05/24 05:52:38;;;;;;;10.88;3.70;;;;;;;;;;6248136;28;20065;-78
2023/05/24 05:55:40;;;;;;;10.20;3.60;;;;;;;;;;6254921;28;20098;-78
2023/05/24 05:58:41;;;;;;;9.93;4.13;;;;;;;;;;6235564;28;20044;-80
2023/05/24 06:01:47;;;;;;;9.98;3.28;;;;;;;;;;6267023;28;20064;-80
2023/05/24 06:04:49;;;;;;;16.35;3.78;;;;;;;;;;6275847;28;20499;-80
2023/05/24 06:07:52;;;;;;;17.33;3.65;;;;;;;;;;6251453;28;20052;-81
2023/05/24 06:10:53;;;;;;;12.00;2.95;;;;;;;;;;6255779;28;20048;-80
2023/05/24 06:13:55;;;;;;;13.30;2.70;;;;;;;;;;6257666;28;20056;-81
2023/05/24 06:16:57;;;;;;;11.65;2.60;;;;;;;;;;6258024;28;20065;-78
2023/05/24 06:20:05;;;;;;;13.10;3.15;;;;;;;;;;6264464;28;20052;-80
2023/05/24 06:23:06;;;;;;;10.10;3.55;;;;;;;;;;6261956;28;20036;-81
2023/05/24 06:26:08;;;;;;;11.48;2.78;;;;;;;;;;6254471;28;20092;-79
2023/05/24 06:29:10;;;;;;;12.23;3.38;;;;;;;;;;6259402;28;20049;-80
2023/05/24 06:32:12;;;;;;;13.38;3.80;;;;;;;;;;6255559;28;20091;-80
2023/05/24 06:35:13;;;;;;;9.75;3.78;;;;;;;;;;6265989;28;20509;-81
2023/05/24 06:38:16;;;;;;;11.70;3.08;;;;;;;;;;6242289;28;20518;-81
2023/05/24 06:41:21;;;;;;;8.80;2.75;;;;;;;;;;6247914;28;20187;-82
2023/05/24 06:44:29;;;;;;;13.70;2.83;;;;;;;;;;6255374;28;20049;-81
2023/05/24 06:47:31;;;;;;;9.68;2.58;;;;;;;;;;6260585;28;20053;-81
2023/05/24 06:50:35;;;;;;;10.52;3.20;;;;;;;;;;6254134;28;20414;-81
2023/05/24 06:53:40;;;;;;;9.23;3.05;;;;;;;;;;6259061;28;20037;-82
2023/05/24 06:56:42;;;;;;;12.30;2.88;;;;;;;;;;6269045;28;20045;-80
2023/05/24 06:59:44;;;;;;;12.13;2.75;;;;;;;;;;6279057;28;20062;-81
2023/05/24 07:02:46;;;;;;;9.70;3.15;;;;;;;;;;6293490;28;20045;-81
2023/05/24 07:05:48;;;;;;;12.75;2.85;;;;;;;;;;6248087;28;20045;-82
2023/05/24 07:08:49;;;;;;;10.50;2.85;;;;;;;;;;6252490;28;20055;-80
2023/05/24 07:11:52;;;;;;;8.95;3.03;;;;;;;;;;6252578;28;20075;-82
2023/05/24 07:14:55;;;;;;;13.37;3.63;;;;;;;;;;6255352;28;20124;-80
2023/05/24 07:17:56;;;;;;;7.75;3.13;;;;;;;;;;6254401;28;20045;-81
2023/05/24 07:20:59;;;;;;;9.15;3.13;;;;;;;;;;6263559;28;20051;-81
2023/05/24 07:24:02;;;;;;;12.13;3.50;;;;;;;;;;6271143;28;20044;-82
2023/05/24 07:27:04;;;;;;;11.57;3.20;;;;;;;;;;6302707;28;20045;-81
2023/05/24 07:30:06;;;;;;;10.77;3.42;;;;;;;;;;6283323;28;20549;-82
2023/05/24 07:33:24;;;;;;;10.45;3.25;;;;;;;;;;6290098;28;20041;-80
2023/05/24 07:36:31;;;;;;;16.70;3.22;;;;;;;;;;6286800;28;20044;-80
2023/05/24 07:39:35;;;;;;;21.73;4.57;;;;;;;;;;6282004;28;20053;-79
2023/05/24 07:42:38;;;;;;;9.88;3.15;;;;;;;;;;6285661;28;20071;-79
2023/05/24 07:45:39;;;;;;;10.93;3.50;;;;;;;;;;6278287;28;20049;-79
2023/05/24 07:48:42;;;;;;;16.47;4.93;;;;;;;;;;6282602;28;20479;-79
2023/05/24 07:51:44;;;;;;;11.10;3.13;;;;;;;;;;6273507;28;20052;-79
2023/05/24 07:54:46;;;;;;;12.07;3.10;;;;;;;;;;6286487;28;20075;-78
2023/05/24 07:57:48;;;;;;;15.93;3.83;;;;;;;;;;6270318;28;20052;-78
2023/05/24 08:00:53;;;;;;;10.18;3.38;;;;;;;;;;6267474;28;20045;-78
2023/05/24 08:03:55;;;;;;;13.85;3.75;;;;;;;;;;6279067;28;20072;-81
2023/05/24 08:06:58;;;;;;;11.53;3.30;;;;;;;;;;6254913;28;20120;-80
2023/05/24 08:10:00;;;;;;;9.73;3.00;;;;;;;;;;6258977;28;20455;-80
2023/05/24 08:13:03;;;;;;;14.83;3.60;;;;;;;;;;6242714;28;20067;-80
2023/05/24 08:16:05;;;;;;;13.52;3.58;;;;;;;;;;6241024;28;20048;-81
2023/05/24 08:19:07;;;;;;;9.63;2.97;;;;;;;;;;6263651;28;20076;-80
2023/05/24 08:22:08;;;;;;;13.30;3.70;;;;;;;;;;6271996;28;20426;-77
2023/05/24 08:25:10;;;;;;;12.25;3.55;;;;;;;;;;6293666;28;20041;-78
2023/05/24 08:28:12;;;;;;;11.55;3.17;;;;;;;;;;6260931;28;20075;-80
2023/05/24 08:31:15;;;;;;;12.40;3.90;;;;;;;;;;6256265;28;20059;-81
2023/05/24 08:34:17;;;;;;;13.10;3.43;;;;;;;;;;6261588;28;20472;-81
2023/05/24 08:37:21;;;;;;;13.38;3.53;;;;;;;;;;6270180;28;20043;-81
2023/05/24 08:40:23;;;;;;;13.80;2.80;;;;;;;;;;6258467;28;20048;-80
2023/05/24 08:43:26;;;;;;;12.65;3.25;;;;;;;;;;6252595;28;20623;-78
2023/05/24 08:46:31;;;;;;;5.38;3.00;;;;;;;;;;6259746;28;20053;-78
2023/05/24 08:49:36;;;;;;;11.98;3.03;;;;;;;;;;6258963;28;20151;-79
2023/05/24 08:52:38;;;;;;;9.38;3.78;;;;;;;;;;6277533;28;20033;-81
2023/05/24 08:55:42;;;;;;;14.07;3.47;;;;;;;;;;6261658;28;20513;-78
2023/05/24 08:58:45;;;;;;;7.65;3.15;;;;;;;;;;6257949;28;20076;-79
2023/05/24 09:01:52;;;;;;;10.70;3.17;;;;;;;;;;6255441;28;20525;-80
2023/05/24 09:04:55;;;;;;;11.73;3.40;;;;;;;;;;6256645;28;20084;-78
2023/05/24 09:07:59;;;;;;;15.48;3.10;;;;;;;;;;6250944;28;20045;-79
2023/05/24 09:11:03;;;;;;;12.52;3.25;;;;;;;;;;6248770;28;20051;-78
2023/05/24 09:14:06;;;;;;;11.75;2.70;;;;;;;;;;6256354;28;20136;-79
2023/05/24 09:17:08;;;;;;;10.23;3.17;;;;;;;;;;6262183;28;20049;-81
2023/05/24 09:20:11;;;;;;;13.13;3.85;;;;;;;;;;6261197;28;20423;-79
2023/05/24 09:23:14;;;;;;;9.38;3.00;;;;;;;;;;6270739;28;20509;-80
2023/05/24 09:26:16;;;;;;;14.05;3.47;;;;;;;;;;6258884;28;20075;-80
2023/05/24 09:29:22;;;;;;;10.55;2.95;;;;;;;;;;6252765;28;20036;-78
2023/05/24 09:32:24;;;;;;;12.68;2.83;;;;;;;;;;6259083;28;20053;-78
2023/05/24 09:35:27;;;;;;;11.00;3.10;;;;;;;;;;6235100;28;20620;-79
2023/05/24 09:38:29;;;;;;;10.90;3.13;;;;;;;;;;6255021;28;20049;-79
2023/05/24 09:41:31;;;;;;;8.65;2.65;;;;;;;;;;6259082;28;20521;-79
2023/05/24 09:44:33;;;;;;;10.52;2.92;;;;;;;;;;6268213;28;20075;-78
2023/05/24 09:47:40;;;;;;;9.05;2.47;;;;;;;;;;6239027;28;20534;-77
2023/05/24 09:50:45;;;;;;;8.18;2.45;;;;;;;;;;6251016;28;20439;-79
2023/05/24 09:53:50;;;;;;;8.55;2.20;;;;;;;;;;6270232;28;20229;-79
2023/05/24 09:56:52;;;;;;;7.50;2.67;;;;;;;;;;6258674;28;20044;-79
2023/05/24 09:59:55;;;;;;;9.23;2.88;;;;;;;;;;6252151;28;20044;-80
2023/05/24 10:03:02;;;;;;;6.13;2.33;;;;;;;;;;6256490;28;20042;-77
2023/05/24 10:06:08;;;;;;;11.55;3.67;;;;;;;;;;6252788;28;20106;-77
2023/05/24 10:09:11;;;;;;;8.90;2.78;;;;;;;;;;6255286;28;20075;-79
2023/05/24 10:12:14;;;;;;;7.70;2.55;;;;;;;;;;6261936;28;20388;-79
2023/05/24 10:15:16;;;;;;;10.32;2.60;;;;;;;;;;6247458;28;20067;-78
2023/05/24 10:18:19;;;;;;;12.23;3.42;;;;;;;;;;6254670;28;20042;-76
2023/05/24 10:21:23;;;;;;;9.63;2.55;;;;;;;;;;6256393;28;20049;-78
2023/05/24 10:24:31;;;;;;;7.45;2.30;;;;;;;;;;6251294;28;20580;-77
2023/05/24 10:27:34;;;;;;;9.75;3.47;;;;;;;;;;6252129;28;20049;-76
2023/05/24 10:30:41;;;;;;;;;;;;;;;;;;6261206;28;20038;-79
2023/05/24 10:33:45;;;;;;;5.50;2.38;;;;;;;;;;6279551;28;19920;-77
2023/05/24 10:36:47;;;;;;;;;;;;;;;;;;6262709;28;20061;-76
2023/05/24 10:39:49;;;;;;;8.63;2.22;;;;;;;;;;6232059;28;19920;-76
2023/05/24 10:42:53;;;;;;;6.40;2.28;;;;;;;;;;6253302;28;20072;-77
2023/05/24 10:45:55;;;;;;;10.55;2.78;;;;;;;;;;6254883;28;20048;-79
2023/05/24 10:48:59;;;;;;;7.93;2.47;;;;;;;;;;6232252;28;20041;-79
2023/05/24 10:52:06;;;;;;;11.32;2.75;;;;;;;;;;6244087;28;20051;-77
2023/05/24 10:55:09;;;;;;;8.77;2.70;;;;;;;;;;6263308;28;20060;-79
2023/05/24 10:58:11;;;;;;;9.93;2.80;;;;;;;;;;6270940;28;20068;-76
2023/05/24 11:01:33;;;;;;;7.97;2.95;;;;;;;;;;6264481;28;20048;-77
2023/05/24 11:04:37;;;;;;;7.20;2.80;;;;;;;;;;6256161;28;20074;-78
2023/05/24 11:07:42;;;;;;;13.55;3.13;;;;;;;;;;6257352;28;20049;-78
2023/05/24 11:10:45;;;;;;;4.47;2.20;;;;;;;;;;6253350;28;20488;-76
2023/05/24 11:13:47;;;;;;;7.78;2.92;;;;;;;;;;6255594;28;20048;-77
2023/05/24 11:16:50;;;;;;;5.72;2.28;;;;;;;;;;6257091;28;20049;-77
2023/05/24 11:19:53;;;;;;;7.15;2.75;;;;;;;;;;6265227;28;20454;-79
2023/05/24 11:22:55;;;;;;;;;;;;;;;;;;6257883;28;20672;-77
2023/05/24 11:25:57;;;;;;;7.10;2.80;;;;;;;;;;6236969;28;19920;-77
2023/05/24 11:29:02;;;;;;;8.85;2.55;;;;;;;;;;6255800;28;20068;-79
2023/05/24 11:32:06;;;;;;;9.13;2.90;;;;;;;;;;6250487;28;20425;-77
2023/05/24 11:35:10;;;;;;;7.63;2.90;;;;;;;;;;6249434;28;20045;-78
2023/05/24 11:38:13;;;;;;;8.55;2.40;;;;;;;;;;6263675;28;20045;-79
2023/05/24 11:41:16;;;;;;;6.72;2.50;;;;;;;;;;6270566;28;20045;-80
2023/05/24 11:44:18;;;;;;;6.38;2.35;;;;;;;;;;6271284;28;20053;-81
2023/05/24 11:47:21;;;;;;;7.03;2.17;;;;;;;;;;6257393;28;20110;-80
2023/05/24 11:50:23;;;;;;;;;;;;;;;;;;6255638;28;20146;-81
2023/05/24 11:53:29;;;;;;;6.75;2.13;;;;;;;;;;6253651;28;19955;-80
2023/05/24 11:56:31;;;;;;;9.03;2.57;;;;;;;;;;6268530;28;20045;-79
2023/05/24 11:59:36;;;;;;;7.25;2.67;;;;;;;;;;6247207;28;20057;-83
2023/05/24 12:02:38;;;;;;;5.60;2.33;;;;;;;;;;6242470;28;20044;-78
2023/05/24 12:05:41;;;;;;;9.75;2.60;;;;;;;;;;6254248;28;20503;-79
2023/05/24 12:08:43;;;;;;;7.43;2.40;;;;;;;;;;6240562;28;20045;-79
2023/05/24 12:11:49;;;;;;;8.93;2.60;;;;;;;;;;6253256;28;20522;-79
2023/05/24 12:14:54;;;;;;;7.82;2.30;;;;;;;;;;6253732;28;20045;-78
2023/05/24 12:17:57;;;;;;;8.77;3.03;;;;;;;;;;6269972;28;20038;-79
2023/05/24 12:20:59;;;;;;;6.30;2.38;;;;;;;;;;6266852;28;20132;-80
2023/05/24 12:24:08;;;;;;;10.98;3.00;;;;;;;;;;6255695;28;20527;-80
2023/05/24 12:27:10;;;;;;;6.15;2.60;;;;;;;;;;6242257;28;20038;-77
2023/05/24 12:30:20;;;;;;;8.60;2.80;;;;;;;;;;6249946;28;20648;-80
2023/05/24 12:33:22;;;;;;;7.32;2.70;;;;;;;;;;6254842;28;20042;-79
2023/05/24 12:36:28;;;;;;;8.20;2.40;;;;;;;;;;6214089;28;20160;-77
2023/05/24 12:39:31;;;;;;;7.53;2.30;;;;;;;;;;6258164;28;20060;-78
2023/05/24 12:42:32;;;;;;;7.00;2.25;;;;;;;;;;6268616;28;20061;-79
2023/05/24 12:45:35;;;;;;;9.95;2.60;;;;;;;;;;6262711;28;20522;-79
2023/05/24 12:48:37;;;;;;;;;;;;;;;;;;6253921;28;20045;-81
2023/05/24 12:51:39;;;;;;;6.80;2.35;;;;;;;;;;6257165;28;19956;-79
2023/05/24 12:54:41;;;;;;;5.10;2.10;;;;;;;;;;6240239;28;20380;-81
2023/05/24 12:57:42;;;;;;;8.52;2.35;;;;;;;;;;6263196;28;20414;-79
2023/05/24 13:00:48;;;;;;;9.55;2.40;;;;;;;;;;6243060;28;20053;-79
2023/05/24 13:03:50;;;;;;;7.50;2.05;;;;;;;;;;6264332;28;20049;-78
2023/05/24 13:06:53;;;;;;;10.27;2.47;;;;;;;;;;6257640;28;20160;-77
2023/05/24 13:09:55;;;;;;;7.97;2.93;;;;;;;;;;6241929;28;20040;-79
2023/05/24 13:12:57;;;;;;;7.70;2.30;;;;;;;;;;6266160;28;20470;-78
2023/05/24 13:15:59;;;;;;;4.78;2.13;;;;;;;;;;6255456;28;20049;-79
2023/05/24 13:19:00;;;;;;;6.05;2.28;;;;;;;;;;6256864;28;20174;-77
2023/05/24 13:22:02;;;;;;;8.02;2.20;;;;;;;;;;6256872;28;20044;-79
2023/05/24 13:25:06;;;;;;;5.28;2.60;;;;;;;;;;6256108;28;20048;-78
2023/05/24 13:28:08;;;;;;;9.55;2.35;;;;;;;;;;6255448;28;20053;-78
2023/05/24 13:31:09;;;;;;;9.65;2.50;;;;;;;;;;6256411;28;20072;-78
2023/05/24 13:34:11;;;;;;;5.72;2.40;;;;;;;;;;6254876;28;20048;-77
2023/05/24 13:37:15;;;;;;;8.43;2.50;;;;;;;;;;6258001;28;20119;-79
2023/05/24 13:40:17;;;;;;;8.30;2.53;;;;;;;;;;6241954;28;20514;-78
2023/05/24 13:43:18;;;;;;;8.68;2.97;;;;;;;;;;6255440;28;20045;-79
2023/05/24 13:46:20;;;;;;;6.60;2.25;;;;;;;;;;6258289;28;20116;-76
2023/05/24 13:49:21;;;;;;;7.38;2.67;;;;;;;;;;6266869;28;20188;-76
2023/05/24 13:52:23;;;;;;;7.95;2.53;;;;;;;;;;6256896;28;20598;-77
2023/05/24 13:55:25;;;;;;;7.93;2.65;;;;;;;;;;6264800;28;20095;-77
2023/05/24 13:58:27;;;;;;;8.25;2.75;;;;;;;;;;6257909;28;20049;-75
2023/05/24 14:01:29;;;;;;;9.07;3.47;;;;;;;;;;6255487;28;20501;-79
2023/05/24 14:04:31;;;;;;;7.07;2.88;;;;;;;;;;6244569;28;20053;-78
2023/05/24 14:07:32;;;;;;;10.25;2.88;;;;;;;;;;6254991;28;20451;-76
2023/05/24 14:10:35;;;;;;;6.97;2.75;;;;;;;;;;6249687;28;20071;-79
2023/05/24 14:13:37;;;;;;;5.95;2.20;;;;;;;;;;6251090;28;20076;-77
2023/05/24 14:16:42;;;;;;;11.32;3.65;;;;;;;;;;6256310;28;20081;-79
2023/05/24 14:19:43;;;;;;;6.95;2.67;;;;;;;;;;6262866;28;20041;-80
2023/05/24 14:22:45;;;;;;;8.90;2.67;;;;;;;;;;6239613;28;20045;-77
2023/05/24 14:25:49;;;;;;;8.07;2.58;;;;;;;;;;6252023;28;20040;-80
2023/05/24 14:28:50;;;;;;;6.60;2.53;;;;;;;;;;6251017;28;20124;-78
2023/05/24 14:31:56;;;;;;;7.07;2.83;;;;;;;;;;6267948;28;20076;-79
2023/05/24 14:34:58;;;;;;;7.95;2.63;;;;;;;;;;6250928;28;20464;-78
2023/05/24 14:38:00;;;;;;;6.95;2.40;;;;;;;;;;6267064;28;20076;-80
2023/05/24 14:41:02;;;;;;;8.40;2.47;;;;;;;;;;6255409;28;20099;-78
2023/05/24 14:44:04;;;;;;;7.68;2.25;;;;;;;;;;6267864;28;20036;-80
2023/05/24 14:47:06;;;;;;;7.70;2.67;;;;;;;;;;6274443;28;20056;-78
2023/05/24 14:50:07;;;;;;;7.75;2.88;;;;;;;;;;6256818;28;20045;-78
2023/05/24 14:53:12;;;;;;;9.38;3.00;;;;;;;;;;6259207;28;20073;-77
2023/05/24 14:56:14;;;;;;;10.00;2.65;;;;;;;;;;6249879;28;20091;-77
2023/05/24 14:59:16;;;;;;;10.80;2.80;;;;;;;;;;6257005;28;20118;-76
2023/05/24 15:02:17;;;;;;;6.32;2.58;;;;;;;;;;6264231;28;20176;-76
2023/05/24 15:05:19;;;;;;;9.95;2.50;;;;;;;;;;6245320;28;20056;-79
2023/05/24 15:08:21;;;;;;;9.15;2.80;;;;;;;;;;6245654;28;20037;-78
2023/05/24 15:11:22;;;;;;;6.60;2.38;;;;;;;;;;6238173;28;20095;-79
2023/05/24 15:14:24;;;;;;;9.43;3.35;;;;;;;;;;6250364;28;20049;-77
2023/05/24 15:17:25;;;;;;;13.23;3.03;;;;;;;;;;6247272;28;20716;-79
2023/05/24 15:20:27;;;;;;;7.43;2.80;;;;;;;;;;6248621;28;20049;-80
2023/05/24 15:23:29;;;;;;;10.63;2.78;;;;;;;;;;6262478;28;20057;-77
2023/05/24 15:26:31;;;;;;;7.35;2.60;;;;;;;;;;6251390;28;20048;-80
2023/05/24 15:29:33;;;;;;;14.43;2.80;;;;;;;;;;6242980;28;20422;-77
2023/05/24 15:32:34;;;;;;;5.85;2.53;;;;;;;;;;6248498;28;20123;-80
2023/05/24 15:35:36;;;;;;;8.85;2.97;;;;;;;;;;6250451;28;20080;-78
2023/05/24 15:38:38;;;;;;;5.65;2.60;;;;;;;;;;6234820;28;20046;-79
2023/05/24 15:41:39;;;;;;;6.95;2.78;;;;;;;;;;6248462;28;20049;-78
2023/05/24 15:44:41;;;;;;;10.65;2.78;;;;;;;;;;6249465;28;20072;-80
2023/05/24 15:47:42;;;;;;;7.03;2.70;;;;;;;;;;6254335;28;20041;-82
2023/05/24 15:50:44;;;;;;;6.85;2.67;;;;;;;;;;6247033;28;20045;-79
2023/05/24 15:53:49;;;;;;;10.05;3.05;;;;;;;;;;6247732;28;20159;-80
2023/05/24 15:56:51;;;;;;;8.15;2.70;;;;;;;;;;6252176;28;20036;-80
2023/05/24 15:59:53;;;;;;;8.23;2.38;;;;;;;;;;6243363;28;20072;-80
2023/05/24 16:02:55;;;;;;;9.27;3.30;;;;;;;;;;6247963;28;20064;-79
2023/05/24 16:05:57;;;;;;;6.47;2.80;;;;;;;;;;6251216;28;20057;-80
2023/05/24 16:08:59;;;;;;;9.82;2.63;;;;;;;;;;6254774;28;20076;-80
2023/05/24 16:12:01;;;;;;;6.70;2.45;;;;;;;;;;6250518;28;20063;-79
2023/05/24 16:15:03;;;;;;;6.32;2.40;;;;;;;;;;6250727;28;20040;-81
2023/05/24 16:18:08;;;;;;;9.13;2.55;;;;;;;;;;6258026;28;20060;-77
2023/05/24 16:21:11;;;;;;;6.10;2.60;;;;;;;;;;6275323;28;20122;-78
2023/05/24 16:24:12;;;;;;;7.80;2.97;;;;;;;;;;6249882;28;20041;-80
2023/05/24 16:27:14;;;;;;;6.55;2.70;;;;;;;;;;6261906;28;20465;-78
2023/05/24 16:30:16;;;;;;;6.73;2.37;;;;;;;;;;6255985;28;20132;-78
2023/05/24 16:33:18;;;;;;;6.93;2.90;;;;;;;;;;6254920;28;20497;-79
2023/05/24 16:36:20;;;;;;;6.82;2.53;;;;;;;;;;6253002;28;20046;-80
2023/05/24 16:39:22;;;;;;;10.30;2.88;;;;;;;;;;6255083;28;20044;-78
2023/05/24 16:42:24;;;;;;;6.25;2.35;;;;;;;;;;6260887;28;20227;-79
2023/05/24 16:45:25;;;;;;;8.15;2.35;;;;;;;;;;6260931;28;20127;-79
2023/05/24 16:48:27;;;;;;;7.45;2.60;;;;;;;;;;6273219;28;20099;-79
2023/05/24 16:51:29;;;;;;;5.00;2.30;;;;;;;;;;6258564;28;20060;-80
2023/05/24 16:54:31;;;;;;;7.78;2.47;;;;;;;;;;6244308;28;20095;-79
2023/05/24 16:57:32;;;;;;;4.45;2.58;;;;;;;;;;6252580;28;20050;-78
2023/05/24 17:00:34;;;;;;;5.78;2.67;;;;;;;;;;6256557;28;20089;-78
2023/05/24 17:03:36;;;;;;;5.88;2.28;;;;;;;;;;6258916;28;20203;-80
2023/05/24 17:06:38;;;;;;;5.70;1.90;;;;;;;;;;6258391;28;20054;-79
2023/05/24 17:09:39;;;;;;;10.27;2.50;;;;;;;;;;6258600;28;20425;-78
2023/05/24 17:12:41;;;;;;;5.82;2.15;;;;;;;;;;6260746;28;20118;-79
2023/05/24 17:15:43;;;;;;;3.47;1.83;;;;;;;;;;6249847;28;20041;-80
2023/05/24 17:18:45;;;;;;;5.35;1.73;;;;;;;;;;6252961;28;20049;-81
2023/05/24 17:21:47;;;;;;;5.55;1.60;;;;;;;;;;6254274;28;20052;-77
2023/05/24 17:24:48;;;;;;;6.72;1.40;;;;;;;;;;6254338;28;20094;-78
2023/05/24 17:27:50;;;;;;;2.75;1.25;;;;;;;;;;6241381;28;20056;-78
2023/05/24 17:30:53;;;;;;;3.20;1.33;;;;;;;;;;6236252;28;20095;-79
2023/05/24 17:33:56;;;;;;;6.05;2.35;;;;;;;;;;6273455;28;20087;-79
2023/05/24 17:36:58;;;;;;;3.65;1.40;;;;;;;;;;6258900;28;20060;-78
2023/05/24 17:39:59;;;;;;;3.33;1.38;;;;;;;;;;6254536;28;20120;-79
2023/05/24 17:43:01;;;;;;;3.25;1.52;;;;;;;;;;6245588;28;20049;-79
2023/05/24 17:46:04;;;;;;;2.78;1.50;;;;;;;;;;6248789;28;20041;-76
2023/05/24 17:49:07;;;;;;;3.17;1.27;;;;;;;;;;6251995;28;20108;-79
2023/05/24 17:52:10;;;;;;;3.50;1.48;;;;;;;;;;6240174;28;20048;-80
2023/05/24 17:55:11;;;;;;;4.40;1.60;;;;;;;;;;6254126;28;20102;-76
2023/05/24 17:58:13;;;;;;;4.68;1.60;;;;;;;;;;6263096;28;20100;-79
2023/05/24 18:01:15;;;;;;;7.25;2.42;;;;;;;;;;6263555;28;20052;-82
2023/05/24 18:04:17;;;;;;;9.27;2.95;;;;;;;;;;6263366;28;20916;-80
2023/05/24 18:07:19;;;;;;;10.18;2.90;;;;;;;;;;6257102;28;20450;-80
2023/05/24 18:10:21;;;;;;;9.73;2.45;;;;;;;;;;6240234;28;20154;-79
2023/05/24 18:13:22;;;;;;;7.68;2.55;;;;;;;;;;6260846;28;20037;-79